Terminal Aerodrome Forecast
Issued by NWS

Home | Current Version | Previous Version | Text Only | Print | Product List | Glossary On
Versions: 1 2 3 4 5 6 7 8 9 10 11 12 13
217
FTUS42 KTBW 241132
TAFPIE
TAF
KPIE 241132Z 2412/2512 05005KT P6SM SCT150
     FM241400 07008KT P6SM SCT030 SCT250
     FM241800 04007KT P6SM VCTS SCT035CB SCT100 BKN250
     FM250100 07006KT P6SM SCT030 SCT150=

USA.gov is the U.S. government's official web portal to all federal, state and local government web resources and services.